Russellville, South Carolina
Current Conditions -  °F | °C
As of 12:55 PM on Friday 21 Nov 2014 (Local Time) from KMKS Reporting Station
Haze Haze  
Wind Chill: 17°   Ceiling: Unl
Heat Index: 17°   Visibility: 5mi
Dew Point:   Wind: 3mph
Humidity: 42%   Direction: 310°NW
Pressure: 30.37"   Gusts: NA
Location:  33.4°N, 79.97°W
Report Text: KMKS 211755Z AUTO 31003KT 5SM HZ CLR 17/04 A3037 RMK AO2
Loading
Personal Weather Stations






























Interactive Weather Map New forecast layout! Learn more

10-Day Weather Forecast

Advertisements
Track Severe Weather on mobile